Aviation Digital Data Service (ADDS)

Output produced by METARs form (0854 UTC 19 November 2018)
found at http://www.aviationweather.gov/metar/data/
 
RJFO 190800Z 36013KT 9999 FEW025 SCT030 BKN050 16/09 Q1017
TAF RJFO 190509Z 1906/2012 33010KT 9999 FEW030